Richboro, PA

10:13 PM EST on December 22, 2014 (GMT -0500)
Trenton Mercer | Change Station
CLOSE
Current Station
Airport
Location: Trenton,
Elevation: 210 ft
Nearby Weather Stations

Elev 210 ft 40.28 °N, 74.82 °W | Updated 20 minutes ago

Rain
Rain
42 °F
Feels Like 37 °F
N
8
Wind Variable Wind from ENE

Today
High -- | Low -- °F
--% Chance of Precip.
Yesterday
High -- | Low -- °F
Precip. -- in
7:19 AM 4:37 PM
New Moon, 2% visible
Pressure 30.14 in
Visibility 3.0 miles
Clouds Few 500 ft
Scattered Clouds 900 ft
Overcast 1200 ft
Windchill 37 °F
Dew Point 39 °F
Humidity 89%
Rainfall 0.02 in
Snow Depth Not available.
UV 0 out of 12
Pollen .10 out of 12
Air Quality Not available.
Flu Activity Not available.
METAR KTTN 230253Z 06007KT 3SM -RA BR FEW005 SCT009 OVC012 06/04 A3015 RMK AO2 RAB10 SLP205 P0001 60002 T00560039 58013

More Conditions Fewer Conditions

Pressure 30.14 in
Visibility 3.0 miles
Clouds Few 500 ft
Scattered Clouds 900 ft
Overcast 1200 ft
Windchill 37 °F
Dew Point 39 °F
Humidity 89%
Rainfall 0.02 in
Snow Depth Not available.
UV 0 out of 12
Pollen .10 out of 12
Air Quality Not available.
Flu Activity Not available.
METAR KTTN 230253Z 06007KT 3SM -RA BR FEW005 SCT009 OVC012 06/04 A3015 RMK AO2 RAB10 SLP205 P0001 60002 T00560039 58013

More Conditions Fewer Conditions

10-Day Weather Forecast

Almanac

Astronomy

Dec. 22, 2014 Rise Set
Actual Time
Civil Twilight
Nautical Twilight
Astronomical Twilight
Moon
Length of Visible Light
Length of Day
Tomorrow will be .
, % of the Moon is Illuminated

Today's Extremes

State Highs State Lows

Community

WunderPhotos

Upload Photos

1,779,763 photos uploaded!

WunderBlogs® & News

Nearby

Air Quality

  Air Quality AQ Index Pollutant
Not available.

Snow Depth

Station Depth Elevation

Earthquake Activity

City Distance Mag. Time & Date
Minimum magnitude displayed is 2.5.

Coastal Water Temperatures

Place Temperature

Nearby Weather Stations